sensor_id;sensor_type;location;lat;lon;timestamp;pressure;altitude;pressure_sealevel;temperature;humidity
7200;BME280;3641;49.082;8.200;2024-01-15T00:02:26;99511.47;;;-3.03;91.02
7200;BME280;3641;49.082;8.200;2024-01-15T00:04:52;99502.38;;;-2.66;89.76
7200;BME280;3641;49.082;8.200;2024-01-15T00:07:19;99504.91;;;-2.76;89.85
7200;BME280;3641;49.082;8.200;2024-01-15T00:09:45;99502.63;;;-2.81;90.67
7200;BME280;3641;49.082;8.200;2024-01-15T00:12:12;99509.53;;;-2.67;89.81
7200;BME280;3641;49.082;8.200;2024-01-15T00:14:38;99502.34;;;-2.78;90.66
7200;BME280;3641;49.082;8.200;2024-01-15T00:17:04;99495.31;;;-2.67;89.73
7200;BME280;3641;49.082;8.200;2024-01-15T00:19:32;99493.00;;;-2.61;89.64
7200;BME280;3641;49.082;8.200;2024-01-15T00:21:58;99491.31;;;-2.84;89.98
7200;BME280;3641;49.082;8.200;2024-01-15T00:24:25;99481.59;;;-2.63;89.04
7200;BME280;3641;49.082;8.200;2024-01-15T00:26:51;99475.16;;;-2.60;89.67
7200;BME280;3641;49.082;8.200;2024-01-15T00:29:18;99475.44;;;-2.63;89.25
7200;BME280;3641;49.082;8.200;2024-01-15T00:31:45;99471.63;;;-2.61;89.83
7200;BME280;3641;49.082;8.200;2024-01-15T00:34:11;99462.28;;;-2.89;89.28
7200;BME280;3641;49.082;8.200;2024-01-15T00:36:39;99453.44;;;-2.89;90.18
7200;BME280;3641;49.082;8.200;2024-01-15T00:39:05;99452.47;;;-3.00;90.25
7200;BME280;3641;49.082;8.200;2024-01-15T00:41:32;99449.41;;;-3.18;90.93
7200;BME280;3641;49.082;8.200;2024-01-15T00:43:58;99450.53;;;-2.86;89.64
7200;BME280;3641;49.082;8.200;2024-01-15T00:46:25;99440.81;;;-2.65;88.63
7200;BME280;3641;49.082;8.200;2024-01-15T00:48:51;99444.69;;;-2.69;89.34
7200;BME280;3641;49.082;8.200;2024-01-15T00:51:17;99444.72;;;-2.92;89.70
7200;BME280;3641;49.082;8.200;2024-01-15T00:53:45;99451.13;;;-3.05;90.53
7200;BME280;3641;49.082;8.200;2024-01-15T00:56:11;99443.72;;;-3.24;90.55
7200;BME280;3641;49.082;8.200;2024-01-15T00:58:38;99432.81;;;-3.21;90.50
7200;BME280;3641;49.082;8.200;2024-01-15T01:01:04;99430.97;;;-3.32;91.66
7200;BME280;3641;49.082;8.200;2024-01-15T01:03:31;99443.47;;;-3.21;91.31
7200;BME280;3641;49.082;8.200;2024-01-15T01:05:57;99434.41;;;-3.07;91.23
7200;BME280;3641;49.082;8.200;2024-01-15T01:08:23;99439.00;;;-2.98;89.95
7200;BME280;3641;49.082;8.200;2024-01-15T01:10:51;99444.94;;;-2.72;88.47
7200;BME280;3641;49.082;8.200;2024-01-15T01:13:18;99457.81;;;-2.88;89.68
7200;BME280;3641;49.082;8.200;2024-01-15T01:15:44;99458.91;;;-3.14;90.41
7200;BME280;3641;49.082;8.200;2024-01-15T01:18:10;99459.34;;;-3.42;92.66
7200;BME280;3641;49.082;8.200;2024-01-15T01:20:37;99452.53;;;-3.47;93.59
7200;BME280;3641;49.082;8.200;2024-01-15T01:23:03;99454.47;;;-3.49;93.68
7200;BME280;3641;49.082;8.200;2024-01-15T01:25:30;99452.06;;;-3.40;92.50
7200;BME280;3641;49.082;8.200;2024-01-15T01:27:58;99454.47;;;-3.49;93.91
7200;BME280;3641;49.082;8.200;2024-01-15T01:30:24;99453.00;;;-3.53;93.20
7200;BME280;3641;49.082;8.200;2024-01-15T01:32:50;99456.19;;;-3.48;94.55
7200;BME280;3641;49.082;8.200;2024-01-15T01:35:17;99458.22;;;-3.40;93.77
7200;BME280;3641;49.082;8.200;2024-01-15T01:37:43;99456.34;;;-3.26;93.33
7200;BME280;3641;49.082;8.200;2024-01-15T01:40:10;99454.13;;;-3.44;92.90
7200;BME280;3641;49.082;8.200;2024-01-15T01:42:36;99457.06;;;-3.24;92.54
7200;BME280;3641;49.082;8.200;2024-01-15T01:45:05;99453.44;;;-3.01;91.29
7200;BME280;3641;49.082;8.200;2024-01-15T01:47:32;99452.25;;;-3.55;93.50
7200;BME280;3641;49.082;8.200;2024-01-15T01:49:57;99458.44;;;-3.54;94.32
7200;BME280;3641;49.082;8.200;2024-01-15T01:52:24;99456.16;;;-3.59;94.53
7200;BME280;3641;49.082;8.200;2024-01-15T01:54:51;99461.41;;;-3.46;93.24
7200;BME280;3641;49.082;8.200;2024-01-15T01:57:18;99458.97;;;-3.49;94.22
7200;BME280;3641;49.082;8.200;2024-01-15T01:59:45;99448.19;;;-3.48;93.38
7200;BME280;3641;49.082;8.200;2024-01-15T02:02:15;99452.63;;;-3.48;94.37
7200;BME280;3641;49.082;8.200;2024-01-15T02:04:42;99454.72;;;-3.40;92.95
7200;BME280;3641;49.082;8.200;2024-01-15T02:07:08;99445.03;;;-3.41;93.26
7200;BME280;3641;49.082;8.200;2024-01-15T02:09:35;99451.47;;;-3.33;93.24
7200;BME280;3641;49.082;8.200;2024-01-15T02:12:02;99439.38;;;-3.25;92.90
7200;BME280;3641;49.082;8.200;2024-01-15T02:14:28;99438.25;;;-3.23;92.64
7200;BME280;3641;49.082;8.200;2024-01-15T02:16:55;99435.72;;;-2.90;90.06
7200;BME280;3641;49.082;8.200;2024-01-15T02:19:23;99431.84;;;-3.09;91.92
7200;BME280;3641;49.082;8.200;2024-01-15T02:21:49;99431.84;;;-2.98;91.47
7200;BME280;3641;49.082;8.200;2024-01-15T02:24:17;99441.41;;;-3.18;91.88
7200;BME280;3641;49.082;8.200;2024-01-15T02:26:43;99432.19;;;-2.91;90.62
7200;BME280;3641;49.082;8.200;2024-01-15T02:29:10;99439.38;;;-2.92;90.75
7200;BME280;3641;49.082;8.200;2024-01-15T02:31:37;99435.00;;;-2.93;90.42
7200;BME280;3641;49.082;8.200;2024-01-15T02:34:04;99437.53;;;-2.91;90.65
7200;BME280;3641;49.082;8.200;2024-01-15T02:36:30;99430.84;;;-3.08;91.57
7200;BME280;3641;49.082;8.200;2024-01-15T02:38:57;99435.59;;;-3.12;91.57
7200;BME280;3641;49.082;8.200;2024-01-15T02:41:24;99432.31;;;-3.15;92.44
7200;BME280;3641;49.082;8.200;2024-01-15T02:43:51;99433.19;;;-2.81;90.90
7200;BME280;3641;49.082;8.200;2024-01-15T02:46:17;99432.44;;;-2.83;91.08
7200;BME280;3641;49.082;8.200;2024-01-15T02:48:44;99436.34;;;-2.98;91.10
7200;BME280;3641;49.082;8.200;2024-01-15T02:51:10;99430.25;;;-3.00;90.88
7200;BME280;3641;49.082;8.200;2024-01-15T02:53:36;99440.69;;;-2.86;90.63
7200;BME280;3641;49.082;8.200;2024-01-15T02:56:03;99435.72;;;-2.90;91.11
7200;BME280;3641;49.082;8.200;2024-01-15T02:58:31;99440.19;;;-2.80;91.12
7200;BME280;3641;49.082;8.200;2024-01-15T03:00:57;99445.91;;;-2.84;90.34
7200;BME280;3641;49.082;8.200;2024-01-15T03:03:24;99435.47;;;-2.87;90.60
7200;BME280;3641;49.082;8.200;2024-01-15T03:05:50;99425.25;;;-2.60;89.12
7200;BME280;3641;49.082;8.200;2024-01-15T03:08:17;99432.66;;;-2.75;90.16
7200;BME280;3641;49.082;8.200;2024-01-15T03:10:43;99434.50;;;-2.75;89.77
7200;BME280;3641;49.082;8.200;2024-01-15T03:13:10;99430.75;;;-2.84;91.23
7200;BME280;3641;49.082;8.200;2024-01-15T03:15:37;99432.91;;;-2.55;89.63
7200;BME280;3641;49.082;8.200;2024-01-15T03:18:04;99432.78;;;-2.53;89.95
7200;BME280;3641;49.082;8.200;2024-01-15T03:20:32;99423.34;;;-2.80;90.22
7200;BME280;3641;49.082;8.200;2024-01-15T03:22:58;99422.22;;;-2.55;90.16
7200;BME280;3641;49.082;8.200;2024-01-15T03:25:25;99428.53;;;-2.67;89.14
7200;BME280;3641;49.082;8.200;2024-01-15T03:27:51;99427.69;;;-2.57;90.76
7200;BME280;3641;49.082;8.200;2024-01-15T03:30:18;99426.91;;;-2.36;88.82
7200;BME280;3641;49.082;8.200;2024-01-15T03:32:45;99425.00;;;-2.57;89.45
7200;BME280;3641;49.082;8.200;2024-01-15T03:35:12;99421.56;;;-2.47;89.09
7200;BME280;3641;49.082;8.200;2024-01-15T03:37:39;99422.09;;;-2.53;90.45
7200;BME280;3641;49.082;8.200;2024-01-15T03:40:07;99420.34;;;-2.43;89.82
7200;BME280;3641;49.082;8.200;2024-01-15T03:42:33;99414.34;;;-2.68;90.58
7200;BME280;3641;49.082;8.200;2024-01-15T03:45:00;99408.63;;;-2.63;90.97
7200;BME280;3641;49.082;8.200;2024-01-15T03:47:26;99414.22;;;-2.66;90.48
7200;BME280;3641;49.082;8.200;2024-01-15T03:49:54;99407.66;;;-2.62;90.49
7200;BME280;3641;49.082;8.200;2024-01-15T03:52:20;99402.53;;;-2.54;90.06
7200;BME280;3641;49.082;8.200;2024-01-15T03:54:47;99401.13;;;-2.69;91.02
7200;BME280;3641;49.082;8.200;2024-01-15T03:57:13;99387.50;;;-2.78;91.69
7200;BME280;3641;49.082;8.200;2024-01-15T03:59:40;99377.34;;;-2.84;91.57
7200;BME280;3641;49.082;8.200;2024-01-15T04:02:06;99384.72;;;-2.65;92.19
7200;BME280;3641;49.082;8.200;2024-01-15T04:04:33;99377.59;;;-2.43;89.81
7200;BME280;3641;49.082;8.200;2024-01-15T04:07:00;99379.59;;;-2.57;90.53
7200;BME280;3641;49.082;8.200;2024-01-15T04:09:27;99378.50;;;-2.65;91.30
7200;BME280;3641;49.082;8.200;2024-01-15T04:11:53;99373.69;;;-2.83;91.77
7200;BME280;3641;49.082;8.200;2024-01-15T04:14:20;99367.44;;;-2.61;92.36
7200;BME280;3641;49.082;8.200;2024-01-15T04:16:46;99351.97;;;-2.89;92.85
7200;BME280;3641;49.082;8.200;2024-01-15T04:19:12;99342.03;;;-2.99;92.86
7200;BME280;3641;49.082;8.200;2024-01-15T04:21:39;99335.47;;;-2.83;93.00
7200;BME280;3641;49.082;8.200;2024-01-15T04:24:07;99325.47;;;-2.70;92.64
7200;BME280;3641;49.082;8.200;2024-01-15T04:26:33;99336.75;;;-2.66;91.11
7200;BME280;3641;49.082;8.200;2024-01-15T04:29:00;99341.25;;;-2.67;91.83
7200;BME280;3641;49.082;8.200;2024-01-15T04:31:26;99337.63;;;-2.77;92.57
7200;BME280;3641;49.082;8.200;2024-01-15T04:33:53;99326.81;;;-2.76;92.76
7200;BME280;3641;49.082;8.200;2024-01-15T04:36:19;99324.47;;;-2.58;92.11
7200;BME280;3641;49.082;8.200;2024-01-15T04:38:45;99335.94;;;-2.78;92.55
7200;BME280;3641;49.082;8.200;2024-01-15T04:41:13;99333.84;;;-2.75;92.41
7200;BME280;3641;49.082;8.200;2024-01-15T04:43:40;99343.50;;;-2.51;91.80
7200;BME280;3641;49.082;8.200;2024-01-15T04:46:06;99337.94;;;-2.59;92.01
7200;BME280;3641;49.082;8.200;2024-01-15T04:48:33;99332.00;;;-2.63;92.43
7200;BME280;3641;49.082;8.200;2024-01-15T04:50:59;99328.72;;;-2.55;92.36
7200;BME280;3641;49.082;8.200;2024-01-15T04:53:26;99328.63;;;-2.65;93.04
7200;BME280;3641;49.082;8.200;2024-01-15T04:55:52;99330.75;;;-2.59;93.17
7200;BME280;3641;49.082;8.200;2024-01-15T04:58:20;99321.53;;;-2.54;92.90
7200;BME280;3641;49.082;8.200;2024-01-15T05:00:50;99319.38;;;-2.61;93.81
7200;BME280;3641;49.082;8.200;2024-01-15T05:03:16;99322.75;;;-2.59;93.60
7200;BME280;3641;49.082;8.200;2024-01-15T05:05:43;99321.78;;;-2.58;93.51
7200;BME280;3641;49.082;8.200;2024-01-15T05:08:09;99318.88;;;-2.54;92.52
7200;BME280;3641;49.082;8.200;2024-01-15T05:10:35;99325.03;;;-2.54;93.77
7200;BME280;3641;49.082;8.200;2024-01-15T05:13:02;99313.81;;;-2.69;94.30
7200;BME280;3641;49.082;8.200;2024-01-15T05:15:30;99301.63;;;-2.62;94.37
7200;BME280;3641;49.082;8.200;2024-01-15T05:17:56;99316.41;;;-2.46;92.65
7200;BME280;3641;49.082;8.200;2024-01-15T05:20:22;99315.47;;;-2.57;94.48
7200;BME280;3641;49.082;8.200;2024-01-15T05:22:49;99308.91;;;-2.31;91.76
7200;BME280;3641;49.082;8.200;2024-01-15T05:25:15;99310.69;;;-2.42;93.14
7200;BME280;3641;49.082;8.200;2024-01-15T05:27:42;99318.81;;;-2.43;93.81
7200;BME280;3641;49.082;8.200;2024-01-15T05:30:09;99304.06;;;-2.59;94.20
7200;BME280;3641;49.082;8.200;2024-01-15T05:32:37;99292.97;;;-2.54;94.07
7200;BME280;3641;49.082;8.200;2024-01-15T05:35:04;99283.25;;;-2.44;93.68
7200;BME280;3641;49.082;8.200;2024-01-15T05:37:30;99282.03;;;-2.51;94.06
7200;BME280;3641;49.082;8.200;2024-01-15T05:39:57;99281.34;;;-2.53;94.28
7200;BME280;3641;49.082;8.200;2024-01-15T05:42:23;99261.56;;;-2.62;95.37
7200;BME280;3641;49.082;8.200;2024-01-15T05:44:50;99276.63;;;-2.61;95.86
7200;BME280;3641;49.082;8.200;2024-01-15T05:47:16;99295.41;;;-2.30;94.34
7200;BME280;3641;49.082;8.200;2024-01-15T05:49:45;99293.38;;;-2.59;95.10
7200;BME280;3641;49.082;8.200;2024-01-15T05:52:11;99295.84;;;-2.34;94.12
7200;BME280;3641;49.082;8.200;2024-01-15T05:54:38;99292.69;;;-2.40;93.94
7200;BME280;3641;49.082;8.200;2024-01-15T05:57:04;99292.34;;;-2.46;94.38
7200;BME280;3641;49.082;8.200;2024-01-15T05:59:30;99282.34;;;-2.33;94.11
7200;BME280;3641;49.082;8.200;2024-01-15T06:01:59;99282.66;;;-2.26;94.53
7200;BME280;3641;49.082;8.200;2024-01-15T06:04:26;99287.41;;;-2.30;94.66
7200;BME280;3641;49.082;8.200;2024-01-15T06:06:53;99286.19;;;-2.26;94.03
7200;BME280;3641;49.082;8.200;2024-01-15T06:09:20;99292.44;;;-1.94;91.68
7200;BME280;3641;49.082;8.200;2024-01-15T06:11:46;99297.38;;;-2.11;92.07
7200;BME280;3641;49.082;8.200;2024-01-15T06:14:13;99301.31;;;-2.15;93.20
7200;BME280;3641;49.082;8.200;2024-01-15T06:16:39;99301.19;;;-2.13;93.08
7200;BME280;3641;49.082;8.200;2024-01-15T06:19:05;99307.50;;;-2.14;92.46
7200;BME280;3641;49.082;8.200;2024-01-15T06:21:32;99303.53;;;-2.20;93.04
7200;BME280;3641;49.082;8.200;2024-01-15T06:24:00;99305.41;;;-2.11;93.48
7200;BME280;3641;49.082;8.200;2024-01-15T06:26:26;99306.47;;;-2.23;94.30
7200;BME280;3641;49.082;8.200;2024-01-15T06:28:52;99292.72;;;-2.18;93.92
7200;BME280;3641;49.082;8.200;2024-01-15T06:31:19;99298.19;;;-2.20;92.75
7200;BME280;3641;49.082;8.200;2024-01-15T06:33:45;99307.69;;;-2.06;93.50
7200;BME280;3641;49.082;8.200;2024-01-15T06:36:13;99303.22;;;-2.06;93.44
7200;BME280;3641;49.082;8.200;2024-01-15T06:38:41;99303.22;;;-2.06;92.94
7200;BME280;3641;49.082;8.200;2024-01-15T06:41:09;99304.94;;;-1.95;91.68
7200;BME280;3641;49.082;8.200;2024-01-15T06:43:35;99301.25;;;-2.25;93.52
7200;BME280;3641;49.082;8.200;2024-01-15T06:46:02;99312.13;;;-2.16;93.35
7200;BME280;3641;49.082;8.200;2024-01-15T06:48:28;99314.88;;;-1.86;92.22
7200;BME280;3641;49.082;8.200;2024-01-15T06:50:55;99306.59;;;-2.04;92.91
7200;BME280;3641;49.082;8.200;2024-01-15T06:53:21;99312.97;;;-1.95;92.26
7200;BME280;3641;49.082;8.200;2024-01-15T06:55:48;99305.16;;;-2.08;93.63
7200;BME280;3641;49.082;8.200;2024-01-15T06:58:17;99315.84;;;-2.08;92.81
7200;BME280;3641;49.082;8.200;2024-01-15T07:00:44;99308.34;;;-2.14;92.92
7200;BME280;3641;49.082;8.200;2024-01-15T07:03:10;99301.69;;;-1.98;93.58
7200;BME280;3641;49.082;8.200;2024-01-15T07:05:37;99308.56;;;-2.06;93.18
7200;BME280;3641;49.082;8.200;2024-01-15T07:08:04;99298.72;;;-2.26;93.88
7200;BME280;3641;49.082;8.200;2024-01-15T07:10:30;99293.69;;;-1.98;92.73
7200;BME280;3641;49.082;8.200;2024-01-15T07:12:56;99300.31;;;-2.14;94.11
7200;BME280;3641;49.082;8.200;2024-01-15T07:15:24;99311.75;;;-1.91;92.94
7200;BME280;3641;49.082;8.200;2024-01-15T07:17:51;99304.81;;;-2.14;93.39
7200;BME280;3641;49.082;8.200;2024-01-15T07:20:17;99302.34;;;-2.06;93.45
7200;BME280;3641;49.082;8.200;2024-01-15T07:22:44;99295.59;;;-2.10;93.59
7200;BME280;3641;49.082;8.200;2024-01-15T07:25:11;99302.88;;;-2.12;92.89
7200;BME280;3641;49.082;8.200;2024-01-15T07:27:38;99307.03;;;-1.98;92.75
7200;BME280;3641;49.082;8.200;2024-01-15T07:30:05;99305.28;;;-2.09;93.41
7200;BME280;3641;49.082;8.200;2024-01-15T07:32:33;99317.94;;;-1.90;92.97
7200;BME280;3641;49.082;8.200;2024-01-15T07:35:00;99300.47;;;-1.94;92.74
7200;BME280;3641;49.082;8.200;2024-01-15T07:37:27;99311.16;;;-1.94;92.86
7200;BME280;3641;49.082;8.200;2024-01-15T07:39:54;99304.31;;;-2.08;93.24
7200;BME280;3641;49.082;8.200;2024-01-15T07:42:23;99301.97;;;-2.02;93.60
7200;BME280;3641;49.082;8.200;2024-01-15T07:44:50;99302.66;;;-1.99;93.67
7200;BME280;3641;49.082;8.200;2024-01-15T07:47:17;99299.94;;;-1.88;93.33
7200;BME280;3641;49.082;8.200;2024-01-15T07:49:45;99301.09;;;-1.81;92.84
7200;BME280;3641;49.082;8.200;2024-01-15T07:52:11;99296.66;;;-1.71;92.41
7200;BME280;3641;49.082;8.200;2024-01-15T07:54:38;99295.13;;;-1.94;93.66
7200;BME280;3641;49.082;8.200;2024-01-15T07:57:05;99282.94;;;-1.77;93.69
7200;BME280;3641;49.082;8.200;2024-01-15T07:59:31;99284.88;;;-1.89;95.70
7200;BME280;3641;49.082;8.200;2024-01-15T08:01:59;99288.91;;;-1.95;96.29
7200;BME280;3641;49.082;8.200;2024-01-15T08:04:25;99285.88;;;-1.80;95.89
7200;BME280;3641;49.082;8.200;2024-01-15T08:06:53;99284.53;;;-1.75;95.15
7200;BME280;3641;49.082;8.200;2024-01-15T08:09:19;99268.56;;;-1.86;95.46
7200;BME280;3641;49.082;8.200;2024-01-15T08:11:45;99273.22;;;-1.88;95.49
7200;BME280;3641;49.082;8.200;2024-01-15T08:14:12;99275.44;;;-1.62;94.25
7200;BME280;3641;49.082;8.200;2024-01-15T08:16:38;99270.63;;;-1.69;95.02
7200;BME280;3641;49.082;8.200;2024-01-15T08:19:05;99267.69;;;-1.66;95.21
7200;BME280;3641;49.082;8.200;2024-01-15T08:21:32;99256.81;;;-1.74;95.97
7200;BME280;3641;49.082;8.200;2024-01-15T08:24:02;99256.75;;;-1.53;93.82
7200;BME280;3641;49.082;8.200;2024-01-15T08:26:29;99259.13;;;-1.59;95.40
7200;BME280;3641;49.082;8.200;2024-01-15T08:28:56;99258.16;;;-1.49;94.97
7200;BME280;3641;49.082;8.200;2024-01-15T08:31:22;99263.34;;;-1.57;94.66
7200;BME280;3641;49.082;8.200;2024-01-15T08:33:49;99263.84;;;-1.73;96.23
7200;BME280;3641;49.082;8.200;2024-01-15T08:36:15;99275.75;;;-1.56;95.56
7200;BME280;3641;49.082;8.200;2024-01-15T08:38:42;99282.94;;;-1.56;96.12
7200;BME280;3641;49.082;8.200;2024-01-15T08:41:11;99277.78;;;-1.38;94.60
7200;BME280;3641;49.082;8.200;2024-01-15T08:43:37;99284.00;;;-1.28;93.52
7200;BME280;3641;49.082;8.200;2024-01-15T08:46:04;99269.19;;;-1.42;95.60
7200;BME280;3641;49.082;8.200;2024-01-15T08:48:31;99283.53;;;-1.43;96.45
7200;BME280;3641;49.082;8.200;2024-01-15T08:50:58;99273.09;;;-1.46;97.14
7200;BME280;3641;49.082;8.200;2024-01-15T08:53:24;99267.09;;;-1.38;96.98
7200;BME280;3641;49.082;8.200;2024-01-15T08:55:51;99254.09;;;-1.43;97.38
7200;BME280;3641;49.082;8.200;2024-01-15T08:58:19;99273.28;;;-1.38;97.70
7200;BME280;3641;49.082;8.200;2024-01-15T09:00:45;99272.88;;;-1.33;97.30
7200;BME280;3641;49.082;8.200;2024-01-15T09:03:11;99275.81;;;-1.36;97.40
7200;BME280;3641;49.082;8.200;2024-01-15T09:05:38;99285.78;;;-1.48;98.58
7200;BME280;3641;49.082;8.200;2024-01-15T09:08:06;99269.22;;;-1.32;98.45
7200;BME280;3641;49.082;8.200;2024-01-15T09:10:32;99268.75;;;-1.37;100.00
7200;BME280;3641;49.082;8.200;2024-01-15T09:12:58;99272.06;;;-1.24;97.87
7200;BME280;3641;49.082;8.200;2024-01-15T09:15:26;99263.47;;;-1.18;98.47
7200;BME280;3641;49.082;8.200;2024-01-15T09:17:53;99271.22;;;-1.24;98.50
7200;BME280;3641;49.082;8.200;2024-01-15T09:20:19;99268.69;;;-1.16;97.96
7200;BME280;3641;49.082;8.200;2024-01-15T09:22:46;99264.88;;;-1.14;97.29
7200;BME280;3641;49.082;8.200;2024-01-15T09:25:12;99266.19;;;-1.08;98.35
7200;BME280;3641;49.082;8.200;2024-01-15T09:27:39;99266.44;;;-1.11;98.44
7200;BME280;3641;49.082;8.200;2024-01-15T09:30:06;99262.94;;;-1.12;99.25
7200;BME280;3641;49.082;8.200;2024-01-15T09:32:34;99260.28;;;-0.92;97.05
7200;BME280;3641;49.082;8.200;2024-01-15T09:35:01;99266.19;;;-1.08;99.10
7200;BME280;3641;49.082;8.200;2024-01-15T09:37:27;99268.44;;;-1.03;99.56
7200;BME280;3641;49.082;8.200;2024-01-15T09:39:54;99265.88;;;-1.15;100.00
7200;BME280;3641;49.082;8.200;2024-01-15T09:42:21;99266.19;;;-1.08;100.00
7200;BME280;3641;49.082;8.200;2024-01-15T09:44:50;99258.69;;;-1.14;100.00
7200;BME280;3641;49.082;8.200;2024-01-15T09:47:17;99248.81;;;-1.14;100.00
7200;BME280;3641;49.082;8.200;2024-01-15T09:49:45;99251.19;;;-1.20;100.00
7200;BME280;3641;49.082;8.200;2024-01-15T09:52:12;99240.91;;;-1.15;100.00
7200;BME280;3641;49.082;8.200;2024-01-15T09:54:43;99241.66;;;-1.13;100.00
7200;BME280;3641;49.082;8.200;2024-01-15T09:57:10;99225.22;;;-1.39;100.00
7200;BME280;3641;49.082;8.200;2024-01-15T09:59:37;99236.41;;;-1.24;100.00
7200;BME280;3641;49.082;8.200;2024-01-15T10:02:05;99229.13;;;-1.03;100.00
7200;BME280;3641;49.082;8.200;2024-01-15T10:04:33;99233.34;;;-1.10;100.00
7200;BME280;3641;49.082;8.200;2024-01-15T10:07:01;99227.72;;;-0.97;100.00
7200;BME280;3641;49.082;8.200;2024-01-15T10:09:29;99217.91;;;-1.37;100.00
7200;BME280;3641;49.082;8.200;2024-01-15T10:11:55;99227.50;;;-1.35;100.00
7200;BME280;3641;49.082;8.200;2024-01-15T10:14:22;99228.56;;;-1.47;100.00
7200;BME280;3641;49.082;8.200;2024-01-15T10:16:48;99227.63;;;-1.36;100.00
7200;BME280;3641;49.082;8.200;2024-01-15T10:19:14;99230.84;;;-1.42;100.00
7200;BME280;3641;49.082;8.200;2024-01-15T10:21:41;99225.97;;;-1.27;100.00
7200;BME280;3641;49.082;8.200;2024-01-15T10:24:09;99230.91;;;-1.23;100.00
7200;BME280;3641;49.082;8.200;2024-01-15T10:26:35;99231.06;;;-1.15;100.00
7200;BME280;3641;49.082;8.200;2024-01-15T10:29:01;99229.09;;;-1.13;100.00
7200;BME280;3641;49.082;8.200;2024-01-15T10:31:28;99218.53;;;-1.04;100.00
7200;BME280;3641;49.082;8.200;2024-01-15T10:33:56;99221.63;;;-1.19;100.00
7200;BME280;3641;49.082;8.200;2024-01-15T10:36:35;99214.13;;;-1.35;100.00
7200;BME280;3641;49.082;8.200;2024-01-15T10:39:02;99209.16;;;-1.39;100.00
7200;BME280;3641;49.082;8.200;2024-01-15T10:41:30;99210.31;;;-1.32;100.00
7200;BME280;3641;49.082;8.200;2024-01-15T10:43:56;99200.72;;;-1.35;100.00
7200;BME280;3641;49.082;8.200;2024-01-15T10:46:23;99208.84;;;-1.56;100.00
7200;BME280;3641;49.082;8.200;2024-01-15T10:48:49;99201.38;;;-1.52;100.00
7200;BME280;3641;49.082;8.200;2024-01-15T10:51:15;99197.78;;;-1.32;100.00
7200;BME280;3641;49.082;8.200;2024-01-15T10:53:42;99195.19;;;-1.62;100.00
7200;BME280;3641;49.082;8.200;2024-01-15T10:56:11;99195.03;;;-1.61;100.00
7200;BME280;3641;49.082;8.200;2024-01-15T10:58:41;99194.78;;;-1.48;100.00
7200;BME280;3641;49.082;8.200;2024-01-15T11:01:08;99191.00;;;-1.36;100.00
7200;BME280;3641;49.082;8.200;2024-01-15T11:03:35;99187.22;;;-1.33;100.00
7200;BME280;3641;49.082;8.200;2024-01-15T11:06:02;99189.31;;;-1.37;100.00
7200;BME280;3641;49.082;8.200;2024-01-15T11:08:29;99190.47;;;-1.20;100.00
7200;BME280;3641;49.082;8.200;2024-01-15T11:10:55;99185.22;;;-1.31;100.00
7200;BME280;3641;49.082;8.200;2024-01-15T11:13:41;99179.31;;;-1.25;100.00
7200;BME280;3641;49.082;8.200;2024-01-15T11:16:10;99179.06;;;-1.22;100.00
7200;BME280;3641;49.082;8.200;2024-01-15T11:18:39;99189.34;;;-1.07;100.00
7200;BME280;3641;49.082;8.200;2024-01-15T11:21:22;99190.72;;;-1.23;100.00
7200;BME280;3641;49.082;8.200;2024-01-15T11:23:51;99191.75;;;-1.24;100.00
7200;BME280;3641;49.082;8.200;2024-01-15T11:26:34;99189.34;;;-1.07;100.00
7200;BME280;3641;49.082;8.200;2024-01-15T11:29:04;99181.59;;;-1.01;100.00
7200;BME280;3641;49.082;8.200;2024-01-15T11:31:58;99182.69;;;-1.23;100.00
7200;BME280;3641;49.082;8.200;2024-01-15T11:34:54;99181.59;;;-1.20;100.00
7200;BME280;3641;49.082;8.200;2024-01-15T11:37:23;99177.53;;;-1.05;100.00
7200;BME280;3641;49.082;8.200;2024-01-15T11:39:51;99181.19;;;-1.16;100.00
7200;BME280;3641;49.082;8.200;2024-01-15T11:42:19;99178.78;;;-1.09;100.00
7200;BME280;3641;49.082;8.200;2024-01-15T11:44:49;99187.09;;;-1.02;100.00
7200;BME280;3641;49.082;8.200;2024-01-15T11:47:15;99186.41;;;-0.95;100.00
7200;BME280;3641;49.082;8.200;2024-01-15T11:50:03;99200.63;;;-1.04;100.00
7200;BME280;3641;49.082;8.200;2024-01-15T11:52:33;99199.09;;;-0.97;100.00
7200;BME280;3641;49.082;8.200;2024-01-15T11:55:10;99196.41;;;-0.77;100.00
7200;BME280;3641;49.082;8.200;2024-01-15T11:57:41;99203.91;;;-0.81;100.00
7200;BME280;3641;49.082;8.200;2024-01-15T12:00:12;99204.03;;;-0.73;100.00
7200;BME280;3641;49.082;8.200;2024-01-15T12:02:39;99206.03;;;-0.75;100.00
7200;BME280;3641;49.082;8.200;2024-01-15T12:05:07;99205.31;;;-0.67;100.00
7200;BME280;3641;49.082;8.200;2024-01-15T12:07:33;99204.91;;;-0.62;100.00
7200;BME280;3641;49.082;8.200;2024-01-15T12:10:00;99205.44;;;-0.59;100.00
7200;BME280;3641;49.082;8.200;2024-01-15T12:12:33;99207.56;;;-0.52;100.00
7200;BME280;3641;49.082;8.200;2024-01-15T12:15:03;99204.44;;;-0.67;100.00
7200;BME280;3641;49.082;8.200;2024-01-15T12:17:31;99201.34;;;-0.63;100.00
7200;BME280;3641;49.082;8.200;2024-01-15T12:19:57;99205.28;;;-0.47;100.00
7200;BME280;3641;49.082;8.200;2024-01-15T12:22:24;99196.41;;;-0.58;100.00
7200;BME280;3641;49.082;8.200;2024-01-15T12:24:51;99190.63;;;-0.53;100.00
7200;BME280;3641;49.082;8.200;2024-01-15T12:27:17;99190.88;;;-0.46;100.00
7200;BME280;3641;49.082;8.200;2024-01-15T12:29:44;99191.06;;;-0.48;100.00
7200;BME280;3641;49.082;8.200;2024-01-15T12:32:11;99193.84;;;-0.40;100.00
7200;BME280;3641;49.082;8.200;2024-01-15T12:34:39;99194.56;;;-0.38;100.00
7200;BME280;3641;49.082;8.200;2024-01-15T12:37:06;99183.72;;;-0.46;100.00
7200;BME280;3641;49.082;8.200;2024-01-15T12:39:33;99174.22;;;-0.40;100.00
7200;BME280;3641;49.082;8.200;2024-01-15T12:42:00;99174.81;;;-0.37;100.00
7200;BME280;3641;49.082;8.200;2024-01-15T12:44:27;99182.72;;;-0.35;100.00
7200;BME280;3641;49.082;8.200;2024-01-15T12:46:54;99180.69;;;-0.23;100.00
7200;BME280;3641;49.082;8.200;2024-01-15T12:49:21;99182.97;;;-0.28;100.00
7200;BME280;3641;49.082;8.200;2024-01-15T12:51:54;99187.94;;;-0.33;100.00
7200;BME280;3641;49.082;8.200;2024-01-15T12:54:23;99192.81;;;-0.29;100.00
7200;BME280;3641;49.082;8.200;2024-01-15T12:56:50;99194.78;;;-0.21;100.00
7200;BME280;3641;49.082;8.200;2024-01-15T12:59:16;99203.09;;;-0.14;100.00
7200;BME280;3641;49.082;8.200;2024-01-15T13:01:43;99198.16;;;-0.09;100.00
7200;BME280;3641;49.082;8.200;2024-01-15T13:04:09;99197.19;;;-0.18;100.00
7200;BME280;3641;49.082;8.200;2024-01-15T13:06:36;99201.97;;;-0.12;100.00
7200;BME280;3641;49.082;8.200;2024-01-15T13:09:04;99208.19;;;-0.11;100.00
7200;BME280;3641;49.082;8.200;2024-01-15T13:11:32;99215.53;;;-0.13;100.00
7200;BME280;3641;49.082;8.200;2024-01-15T13:13:58;99218.22;;;-0.13;100.00
7200;BME280;3641;49.082;8.200;2024-01-15T13:16:24;99211.88;;;-0.12;100.00
7200;BME280;3641;49.082;8.200;2024-01-15T13:18:52;99222.31;;;-0.09;100.00
7200;BME280;3641;49.082;8.200;2024-01-15T13:21:18;99233.16;;;-0.01;100.00